createdAt,value
2022-12-20T06:17:14.511Z,172.77
2022-12-20T06:27:14.722Z,175.81
2022-12-20T06:37:14.763Z,176.87
2022-12-20T06:47:14.605Z,179.06
2022-12-20T06:57:14.730Z,178.80
2022-12-20T07:07:14.796Z,179.57
2022-12-20T07:17:14.652Z,179.78
2022-12-20T07:27:14.691Z,178.98
2022-12-20T07:37:14.728Z,174.97
2022-12-20T07:47:14.687Z,177.98
2022-12-20T07:57:15.105Z,177.26
2022-12-20T08:07:14.723Z,177.64
2022-12-20T08:17:14.791Z,173.34
2022-12-20T08:27:14.752Z,174.50
2022-12-20T08:37:15.405Z,179.40
2022-12-20T08:47:15.005Z,172.92
2022-12-20T08:57:15.129Z,150.22
2022-12-20T09:07:15.246Z,141.20
2022-12-20T09:17:15.173Z,139.47
2022-12-20T09:27:15.062Z,155.66
2022-12-20T09:37:15.137Z,165.20
2022-12-20T09:47:15.189Z,165.99
2022-12-20T09:57:15.123Z,177.47
2022-12-20T10:07:15.262Z,173.28
2022-12-20T10:17:15.151Z,163.10
2022-12-20T10:27:15.048Z,155.29
2022-12-20T10:37:15.167Z,150.83
2022-12-20T10:47:15.223Z,153.38
2022-12-20T10:57:15.264Z,156.10
2022-12-20T11:07:15.194Z,160.78
2022-12-20T11:17:15.178Z,163.65
2022-12-20T11:27:15.874Z,165.69
2022-12-20T11:37:15.245Z,174.95
2022-12-20T11:47:15.383Z,172.14
2022-12-20T11:57:15.181Z,174.46
2022-12-20T12:07:15.084Z,178.40
2022-12-20T12:17:15.245Z,173.55
2022-12-20T12:27:16.321Z,178.88
2022-12-20T12:37:15.235Z,179.53
2022-12-20T12:47:15.154Z,175.45
2022-12-20T12:57:15.165Z,165.96
2022-12-20T13:07:15.489Z,170.10
2022-12-20T13:17:19.394Z,178.69
2022-12-20T13:27:15.332Z,175.75
2022-12-20T13:37:15.151Z,179.75
2022-12-20T13:47:15.137Z,178.61
2022-12-20T13:57:15.275Z,178.26
2022-12-20T14:07:15.254Z,171.18
2022-12-20T14:17:15.316Z,169.16
2022-12-20T14:27:15.205Z,173.39
2022-12-20T14:37:15.165Z,178.42
2022-12-20T14:47:15.237Z,175.60
2022-12-20T14:57:15.300Z,171.37
2022-12-20T15:07:15.277Z,154.48
2022-12-20T15:17:15.220Z,143.99
2022-12-20T15:27:15.239Z,162.68
2022-12-20T15:37:18.378Z,179.13
2022-12-20T15:47:15.445Z,179.74
2022-12-20T15:57:15.358Z,178.89
2022-12-20T16:07:15.345Z,179.33
2022-12-20T16:17:15.282Z,179.02
2022-12-20T16:27:15.347Z,179.03
2022-12-20T16:37:15.247Z,179.91
2022-12-20T16:47:15.427Z,178.67
2022-12-20T16:57:15.366Z,179.53
2022-12-20T17:07:15.410Z,179.95
2022-12-20T17:17:15.444Z,180.00
2022-12-20T17:27:15.516Z,179.25
2022-12-20T17:37:15.441Z,179.06
2022-12-20T17:47:15.272Z,179.79
2022-12-20T17:57:15.438Z,179.08
2022-12-20T18:07:15.304Z,179.04
2022-12-20T18:17:15.444Z,178.60
2022-12-20T18:27:15.423Z,179.38
2022-12-20T18:37:15.334Z,180.00
2022-12-20T18:47:15.427Z,179.78
2022-12-20T18:57:15.598Z,179.90
2022-12-20T19:07:15.514Z,179.32
2022-12-20T19:17:15.636Z,177.83
